sensor_id;sensor_type;location;lat;lon;timestamp;temperature;humidity
14095;DHT22;18096;48.142;16.290;2023-04-24T00:00:59;15.10;99.90
14095;DHT22;18096;48.142;16.290;2023-04-24T00:03:26;15.00;99.90
14095;DHT22;18096;48.142;16.290;2023-04-24T00:05:56;15.00;99.90
14095;DHT22;18096;48.142;16.290;2023-04-24T00:08:22;14.90;99.90
14095;DHT22;18096;48.142;16.290;2023-04-24T00:10:49;14.90;99.90
14095;DHT22;18096;48.142;16.290;2023-04-24T00:13:15;14.90;99.90
14095;DHT22;18096;48.142;16.290;2023-04-24T00:15:40;14.90;99.90
14095;DHT22;18096;48.142;16.290;2023-04-24T00:18:06;14.80;99.90
14095;DHT22;18096;48.142;16.290;2023-04-24T00:20:31;14.80;99.90
14095;DHT22;18096;48.142;16.290;2023-04-24T00:23:03;14.80;99.90
14095;DHT22;18096;48.142;16.290;2023-04-24T00:25:29;14.80;99.90
14095;DHT22;18096;48.142;16.290;2023-04-24T00:27:55;14.70;99.90
14095;DHT22;18096;48.142;16.290;2023-04-24T00:30:20;14.70;99.90
14095;DHT22;18096;48.142;16.290;2023-04-24T00:32:46;14.70;99.90
14095;DHT22;18096;48.142;16.290;2023-04-24T00:35:12;14.70;99.90
14095;DHT22;18096;48.142;16.290;2023-04-24T00:37:38;14.60;99.90
14095;DHT22;18096;48.142;16.290;2023-04-24T00:40:04;14.60;99.90
14095;DHT22;18096;48.142;16.290;2023-04-24T00:42:31;14.60;99.90
14095;DHT22;18096;48.142;16.290;2023-04-24T00:44:57;14.50;99.90
14095;DHT22;18096;48.142;16.290;2023-04-24T00:47:23;14.50;99.90
14095;DHT22;18096;48.142;16.290;2023-04-24T00:49:49;14.50;99.90
14095;DHT22;18096;48.142;16.290;2023-04-24T00:52:15;14.50;99.90
14095;DHT22;18096;48.142;16.290;2023-04-24T00:54:44;14.50;99.90
14095;DHT22;18096;48.142;16.290;2023-04-24T00:57:10;14.50;99.90
14095;DHT22;18096;48.142;16.290;2023-04-24T00:59:36;14.40;99.90
14095;DHT22;18096;48.142;16.290;2023-04-24T01:02:02;14.40;99.90
14095;DHT22;18096;48.142;16.290;2023-04-24T01:04:28;14.30;99.90
14095;DHT22;18096;48.142;16.290;2023-04-24T01:06:55;14.30;99.90
14095;DHT22;18096;48.142;16.290;2023-04-24T01:09:23;14.30;99.90
14095;DHT22;18096;48.142;16.290;2023-04-24T01:11:49;14.20;99.90
14095;DHT22;18096;48.142;16.290;2023-04-24T01:14:15;14.20;99.90
14095;DHT22;18096;48.142;16.290;2023-04-24T01:16:41;14.20;99.90
14095;DHT22;18096;48.142;16.290;2023-04-24T01:19:07;14.10;99.90
14095;DHT22;18096;48.142;16.290;2023-04-24T01:21:36;14.10;99.90
14095;DHT22;18096;48.142;16.290;2023-04-24T01:24:04;14.10;99.90
14095;DHT22;18096;48.142;16.290;2023-04-24T01:26:30;14.10;99.90
14095;DHT22;18096;48.142;16.290;2023-04-24T01:28:56;14.10;99.90
14095;DHT22;18096;48.142;16.290;2023-04-24T01:31:22;14.00;99.90
14095;DHT22;18096;48.142;16.290;2023-04-24T01:33:49;14.10;99.90
14095;DHT22;18096;48.142;16.290;2023-04-24T01:36:16;14.00;99.90
14095;DHT22;18096;48.142;16.290;2023-04-24T01:38:42;14.10;99.90
14095;DHT22;18096;48.142;16.290;2023-04-24T01:41:08;14.00;99.90
14095;DHT22;18096;48.142;16.290;2023-04-24T01:43:33;14.00;99.90
14095;DHT22;18096;48.142;16.290;2023-04-24T01:45:59;14.00;99.90
14095;DHT22;18096;48.142;16.290;2023-04-24T01:48:25;13.90;99.90
14095;DHT22;18096;48.142;16.290;2023-04-24T01:50:50;13.90;99.90
14095;DHT22;18096;48.142;16.290;2023-04-24T01:53:16;13.90;99.90
14095;DHT22;18096;48.142;16.290;2023-04-24T01:55:42;13.90;99.90
14095;DHT22;18096;48.142;16.290;2023-04-24T01:58:07;13.80;99.90
14095;DHT22;18096;48.142;16.290;2023-04-24T02:00:33;13.80;99.90
14095;DHT22;18096;48.142;16.290;2023-04-24T02:02:59;13.80;99.90
14095;DHT22;18096;48.142;16.290;2023-04-24T02:05:27;13.80;99.90
14095;DHT22;18096;48.142;16.290;2023-04-24T02:07:53;13.80;99.90
14095;DHT22;18096;48.142;16.290;2023-04-24T02:10:18;13.80;99.90
14095;DHT22;18096;48.142;16.290;2023-04-24T02:12:44;13.80;99.90
14095;DHT22;18096;48.142;16.290;2023-04-24T02:15:10;13.80;99.90
14095;DHT22;18096;48.142;16.290;2023-04-24T02:17:36;13.80;99.90
14095;DHT22;18096;48.142;16.290;2023-04-24T02:20:01;13.70;99.90
14095;DHT22;18096;48.142;16.290;2023-04-24T02:22:27;13.70;99.90
14095;DHT22;18096;48.142;16.290;2023-04-24T02:24:53;13.70;99.90
14095;DHT22;18096;48.142;16.290;2023-04-24T02:27:19;13.70;99.90
14095;DHT22;18096;48.142;16.290;2023-04-24T02:29:44;13.70;99.90
14095;DHT22;18096;48.142;16.290;2023-04-24T02:32:10;13.70;99.90
14095;DHT22;18096;48.142;16.290;2023-04-24T02:34:37;13.80;99.90
14095;DHT22;18096;48.142;16.290;2023-04-24T02:37:03;13.80;99.90
14095;DHT22;18096;48.142;16.290;2023-04-24T02:39:29;13.80;99.90
14095;DHT22;18096;48.142;16.290;2023-04-24T02:41:55;13.80;99.90
14095;DHT22;18096;48.142;16.290;2023-04-24T02:44:20;13.80;99.90
14095;DHT22;18096;48.142;16.290;2023-04-24T02:46:47;13.80;99.90
14095;DHT22;18096;48.142;16.290;2023-04-24T02:49:12;13.70;99.90
14095;DHT22;18096;48.142;16.290;2023-04-24T02:51:38;13.70;99.90
14095;DHT22;18096;48.142;16.290;2023-04-24T02:54:07;13.70;99.90
14095;DHT22;18096;48.142;16.290;2023-04-24T02:56:34;13.80;99.90
14095;DHT22;18096;48.142;16.290;2023-04-24T02:58:59;13.80;99.90
14095;DHT22;18096;48.142;16.290;2023-04-24T03:01:25;13.70;99.90
14095;DHT22;18096;48.142;16.290;2023-04-24T03:03:51;13.70;99.90
14095;DHT22;18096;48.142;16.290;2023-04-24T03:06:16;13.70;99.90
14095;DHT22;18096;48.142;16.290;2023-04-24T03:08:42;13.70;99.90
14095;DHT22;18096;48.142;16.290;2023-04-24T03:11:08;13.70;99.90
14095;DHT22;18096;48.142;16.290;2023-04-24T03:13:33;13.70;99.90
14095;DHT22;18096;48.142;16.290;2023-04-24T03:15:59;13.70;99.90
14095;DHT22;18096;48.142;16.290;2023-04-24T03:18:24;13.80;99.90
14095;DHT22;18096;48.142;16.290;2023-04-24T03:20:50;13.80;99.90
14095;DHT22;18096;48.142;16.290;2023-04-24T03:23:16;13.70;99.90
14095;DHT22;18096;48.142;16.290;2023-04-24T03:25:42;13.70;99.90
14095;DHT22;18096;48.142;16.290;2023-04-24T03:28:08;13.70;99.90
14095;DHT22;18096;48.142;16.290;2023-04-24T03:30:34;13.70;99.90
14095;DHT22;18096;48.142;16.290;2023-04-24T03:33:00;13.70;99.90
14095;DHT22;18096;48.142;16.290;2023-04-24T03:35:26;13.70;99.90
14095;DHT22;18096;48.142;16.290;2023-04-24T03:37:51;13.70;99.90
14095;DHT22;18096;48.142;16.290;2023-04-24T03:40:17;13.70;99.90
14095;DHT22;18096;48.142;16.290;2023-04-24T03:42:42;13.70;99.90
14095;DHT22;18096;48.142;16.290;2023-04-24T03:45:09;13.70;99.90
14095;DHT22;18096;48.142;16.290;2023-04-24T03:47:34;13.70;99.90
14095;DHT22;18096;48.142;16.290;2023-04-24T03:50:01;13.70;99.90
14095;DHT22;18096;48.142;16.290;2023-04-24T03:52:27;13.70;99.90
14095;DHT22;18096;48.142;16.290;2023-04-24T03:54:52;13.80;99.90
14095;DHT22;18096;48.142;16.290;2023-04-24T03:57:18;13.80;99.90
14095;DHT22;18096;48.142;16.290;2023-04-24T03:59:44;13.80;99.90
14095;DHT22;18096;48.142;16.290;2023-04-24T04:02:09;13.80;99.90
14095;DHT22;18096;48.142;16.290;2023-04-24T04:04:35;13.80;99.90
14095;DHT22;18096;48.142;16.290;2023-04-24T04:07:01;13.80;99.90
14095;DHT22;18096;48.142;16.290;2023-04-24T04:09:28;13.80;99.90
14095;DHT22;18096;48.142;16.290;2023-04-24T04:11:54;13.90;99.90
14095;DHT22;18096;48.142;16.290;2023-04-24T04:14:21;13.90;99.90
14095;DHT22;18096;48.142;16.290;2023-04-24T04:16:46;13.90;99.90
14095;DHT22;18096;48.142;16.290;2023-04-24T04:19:12;13.90;99.90
14095;DHT22;18096;48.142;16.290;2023-04-24T04:21:38;14.00;99.90
14095;DHT22;18096;48.142;16.290;2023-04-24T04:24:03;14.00;99.90
14095;DHT22;18096;48.142;16.290;2023-04-24T04:26:30;14.00;99.90
14095;DHT22;18096;48.142;16.290;2023-04-24T04:28:58;14.00;99.90
14095;DHT22;18096;48.142;16.290;2023-04-24T04:31:24;14.00;99.90
14095;DHT22;18096;48.142;16.290;2023-04-24T04:33:50;14.00;99.90
14095;DHT22;18096;48.142;16.290;2023-04-24T04:36:15;14.10;99.90
14095;DHT22;18096;48.142;16.290;2023-04-24T04:38:42;14.10;99.90
14095;DHT22;18096;48.142;16.290;2023-04-24T04:41:10;14.10;99.90
14095;DHT22;18096;48.142;16.290;2023-04-24T04:43:36;14.10;99.90
14095;DHT22;18096;48.142;16.290;2023-04-24T04:46:02;14.20;99.90
14095;DHT22;18096;48.142;16.290;2023-04-24T04:48:28;14.20;99.90
14095;DHT22;18096;48.142;16.290;2023-04-24T04:50:56;14.20;99.90
14095;DHT22;18096;48.142;16.290;2023-04-24T04:53:22;14.20;99.90
14095;DHT22;18096;48.142;16.290;2023-04-24T04:55:48;14.20;99.90
14095;DHT22;18096;48.142;16.290;2023-04-24T04:58:14;14.20;99.90
14095;DHT22;18096;48.142;16.290;2023-04-24T05:00:39;14.20;99.90
14095;DHT22;18096;48.142;16.290;2023-04-24T05:03:05;14.20;99.90
14095;DHT22;18096;48.142;16.290;2023-04-24T05:05:31;14.20;99.90
14095;DHT22;18096;48.142;16.290;2023-04-24T05:07:57;14.20;99.90
14095;DHT22;18096;48.142;16.290;2023-04-24T05:10:22;14.20;99.90
14095;DHT22;18096;48.142;16.290;2023-04-24T05:12:48;14.30;99.90
14095;DHT22;18096;48.142;16.290;2023-04-24T05:15:14;14.30;99.90
14095;DHT22;18096;48.142;16.290;2023-04-24T05:17:40;14.30;99.90
14095;DHT22;18096;48.142;16.290;2023-04-24T05:20:06;14.40;99.90
14095;DHT22;18096;48.142;16.290;2023-04-24T05:22:32;14.40;99.90
14095;DHT22;18096;48.142;16.290;2023-04-24T05:24:58;14.40;99.90
14095;DHT22;18096;48.142;16.290;2023-04-24T05:27:24;14.50;99.90
14095;DHT22;18096;48.142;16.290;2023-04-24T05:29:50;14.60;99.90
14095;DHT22;18096;48.142;16.290;2023-04-24T05:32:16;14.60;99.90
14095;DHT22;18096;48.142;16.290;2023-04-24T05:34:42;14.60;99.90
14095;DHT22;18096;48.142;16.290;2023-04-24T05:37:07;14.70;99.90
14095;DHT22;18096;48.142;16.290;2023-04-24T05:39:35;14.70;99.90
14095;DHT22;18096;48.142;16.290;2023-04-24T05:42:01;14.70;99.90
14095;DHT22;18096;48.142;16.290;2023-04-24T05:44:28;14.80;99.90
14095;DHT22;18096;48.142;16.290;2023-04-24T05:46:54;14.80;99.90
14095;DHT22;18096;48.142;16.290;2023-04-24T05:49:21;14.90;99.90
14095;DHT22;18096;48.142;16.290;2023-04-24T05:51:47;14.90;99.90
14095;DHT22;18096;48.142;16.290;2023-04-24T05:54:12;15.00;99.90
14095;DHT22;18096;48.142;16.290;2023-04-24T05:56:38;15.00;99.90
14095;DHT22;18096;48.142;16.290;2023-04-24T05:59:04;15.10;99.90
14095;DHT22;18096;48.142;16.290;2023-04-24T06:01:30;15.10;99.90
14095;DHT22;18096;48.142;16.290;2023-04-24T06:03:57;15.10;99.90
14095;DHT22;18096;48.142;16.290;2023-04-24T06:06:23;15.10;99.90
14095;DHT22;18096;48.142;16.290;2023-04-24T06:08:49;15.10;99.90
14095;DHT22;18096;48.142;16.290;2023-04-24T06:11:14;15.10;99.90
14095;DHT22;18096;48.142;16.290;2023-04-24T06:13:40;15.10;99.90
14095;DHT22;18096;48.142;16.290;2023-04-24T06:16:06;15.10;99.90
14095;DHT22;18096;48.142;16.290;2023-04-24T06:18:31;15.10;99.90
14095;DHT22;18096;48.142;16.290;2023-04-24T06:20:57;15.10;99.90
14095;DHT22;18096;48.142;16.290;2023-04-24T06:23:23;15.10;99.90
14095;DHT22;18096;48.142;16.290;2023-04-24T06:25:48;15.10;99.90
14095;DHT22;18096;48.142;16.290;2023-04-24T06:28:15;15.10;99.90
14095;DHT22;18096;48.142;16.290;2023-04-24T06:30:41;15.10;99.90
14095;DHT22;18096;48.142;16.290;2023-04-24T06:33:06;15.10;99.90
14095;DHT22;18096;48.142;16.290;2023-04-24T06:35:32;15.10;99.90
14095;DHT22;18096;48.142;16.290;2023-04-24T06:37:58;15.10;99.90
14095;DHT22;18096;48.142;16.290;2023-04-24T06:40:24;15.10;99.90
14095;DHT22;18096;48.142;16.290;2023-04-24T06:42:49;15.20;99.90
14095;DHT22;18096;48.142;16.290;2023-04-24T06:45:15;15.20;99.90
14095;DHT22;18096;48.142;16.290;2023-04-24T06:47:41;15.20;99.90
14095;DHT22;18096;48.142;16.290;2023-04-24T06:50:07;15.20;99.90
14095;DHT22;18096;48.142;16.290;2023-04-24T06:52:32;15.20;99.90
14095;DHT22;18096;48.142;16.290;2023-04-24T06:55:02;15.20;99.90
14095;DHT22;18096;48.142;16.290;2023-04-24T06:57:28;15.20;99.90
14095;DHT22;18096;48.142;16.290;2023-04-24T06:59:54;15.30;99.90
14095;DHT22;18096;48.142;16.290;2023-04-24T07:02:19;15.30;99.90
14095;DHT22;18096;48.142;16.290;2023-04-24T07:04:45;15.30;99.90
14095;DHT22;18096;48.142;16.290;2023-04-24T07:07:12;15.30;99.90
14095;DHT22;18096;48.142;16.290;2023-04-24T07:09:39;15.30;99.90
14095;DHT22;18096;48.142;16.290;2023-04-24T07:12:08;15.30;99.90
14095;DHT22;18096;48.142;16.290;2023-04-24T07:14:33;15.40;99.90
14095;DHT22;18096;48.142;16.290;2023-04-24T07:17:00;15.40;99.90
14095;DHT22;18096;48.142;16.290;2023-04-24T07:19:26;15.30;99.90
14095;DHT22;18096;48.142;16.290;2023-04-24T07:21:52;15.30;99.90
14095;DHT22;18096;48.142;16.290;2023-04-24T07:24:18;15.30;99.90
14095;DHT22;18096;48.142;16.290;2023-04-24T07:26:44;15.30;99.90
14095;DHT22;18096;48.142;16.290;2023-04-24T07:29:12;15.30;99.90
14095;DHT22;18096;48.142;16.290;2023-04-24T07:31:37;15.30;99.90
14095;DHT22;18096;48.142;16.290;2023-04-24T07:34:03;15.30;99.90
14095;DHT22;18096;48.142;16.290;2023-04-24T07:36:28;15.30;99.90
14095;DHT22;18096;48.142;16.290;2023-04-24T07:38:55;15.30;99.90
14095;DHT22;18096;48.142;16.290;2023-04-24T07:41:21;15.30;99.90
14095;DHT22;18096;48.142;16.290;2023-04-24T07:43:48;15.30;99.90
14095;DHT22;18096;48.142;16.290;2023-04-24T07:46:13;15.30;99.90
14095;DHT22;18096;48.142;16.290;2023-04-24T07:48:39;15.20;99.90
14095;DHT22;18096;48.142;16.290;2023-04-24T07:51:05;15.20;99.90
14095;DHT22;18096;48.142;16.290;2023-04-24T07:53:30;15.10;99.90
14095;DHT22;18096;48.142;16.290;2023-04-24T07:55:56;15.10;99.90
14095;DHT22;18096;48.142;16.290;2023-04-24T07:58:22;15.10;99.90
14095;DHT22;18096;48.142;16.290;2023-04-24T08:00:48;15.10;99.90
14095;DHT22;18096;48.142;16.290;2023-04-24T08:03:13;15.10;99.90
14095;DHT22;18096;48.142;16.290;2023-04-24T08:05:39;15.10;99.90
14095;DHT22;18096;48.142;16.290;2023-04-24T08:08:06;15.10;99.90
14095;DHT22;18096;48.142;16.290;2023-04-24T08:10:31;15.10;99.90
14095;DHT22;18096;48.142;16.290;2023-04-24T08:12:57;15.10;99.90
14095;DHT22;18096;48.142;16.290;2023-04-24T08:15:23;15.10;99.90
14095;DHT22;18096;48.142;16.290;2023-04-24T08:17:48;15.10;99.90
14095;DHT22;18096;48.142;16.290;2023-04-24T08:20:15;15.10;99.90
14095;DHT22;18096;48.142;16.290;2023-04-24T08:22:41;15.10;99.90
14095;DHT22;18096;48.142;16.290;2023-04-24T08:25:08;15.10;99.90
14095;DHT22;18096;48.142;16.290;2023-04-24T08:27:34;15.10;99.90
14095;DHT22;18096;48.142;16.290;2023-04-24T08:29:59;15.10;99.90
14095;DHT22;18096;48.142;16.290;2023-04-24T08:32:26;15.00;99.90
14095;DHT22;18096;48.142;16.290;2023-04-24T08:34:55;15.00;99.90
14095;DHT22;18096;48.142;16.290;2023-04-24T08:37:22;14.90;99.90
14095;DHT22;18096;48.142;16.290;2023-04-24T08:39:48;14.80;99.90
14095;DHT22;18096;48.142;16.290;2023-04-24T08:42:16;14.70;99.90
14095;DHT22;18096;48.142;16.290;2023-04-24T08:44:42;14.50;99.90
14095;DHT22;18096;48.142;16.290;2023-04-24T08:47:08;14.50;99.90
14095;DHT22;18096;48.142;16.290;2023-04-24T08:49:36;14.40;99.90
14095;DHT22;18096;48.142;16.290;2023-04-24T08:52:02;14.30;99.90
14095;DHT22;18096;48.142;16.290;2023-04-24T08:54:28;14.20;99.90
14095;DHT22;18096;48.142;16.290;2023-04-24T08:56:59;14.20;99.90
14095;DHT22;18096;48.142;16.290;2023-04-24T08:59:27;14.20;99.90
14095;DHT22;18096;48.142;16.290;2023-04-24T09:01:53;14.10;99.90
14095;DHT22;18096;48.142;16.290;2023-04-24T09:04:20;14.10;99.90
14095;DHT22;18096;48.142;16.290;2023-04-24T09:06:48;14.10;99.90
14095;DHT22;18096;48.142;16.290;2023-04-24T09:09:15;14.10;99.90
14095;DHT22;18096;48.142;16.290;2023-04-24T09:11:41;14.00;99.90
14095;DHT22;18096;48.142;16.290;2023-04-24T09:14:09;13.90;99.90
14095;DHT22;18096;48.142;16.290;2023-04-24T09:16:35;13.90;99.90
14095;DHT22;18096;48.142;16.290;2023-04-24T09:19:01;13.80;99.90
14095;DHT22;18096;48.142;16.290;2023-04-24T09:21:32;13.80;99.90
14095;DHT22;18096;48.142;16.290;2023-04-24T09:24:00;13.80;99.90
14095;DHT22;18096;48.142;16.290;2023-04-24T09:26:29;13.80;99.90
14095;DHT22;18096;48.142;16.290;2023-04-24T09:28:57;13.80;99.90
14095;DHT22;18096;48.142;16.290;2023-04-24T09:31:23;13.70;99.90
14095;DHT22;18096;48.142;16.290;2023-04-24T09:34:01;13.70;99.90
14095;DHT22;18096;48.142;16.290;2023-04-24T09:36:41;13.70;99.90
14095;DHT22;18096;48.142;16.290;2023-04-24T09:39:09;13.70;99.90
14095;DHT22;18096;48.142;16.290;2023-04-24T09:41:53;13.70;99.90
14095;DHT22;18096;48.142;16.290;2023-04-24T09:44:20;13.70;99.90
14095;DHT22;18096;48.142;16.290;2023-04-24T09:46:56;13.70;99.90
14095;DHT22;18096;48.142;16.290;2023-04-24T09:49:26;13.70;99.90
14095;DHT22;18096;48.142;16.290;2023-04-24T09:52:06;13.70;99.90
14095;DHT22;18096;48.142;16.290;2023-04-24T09:54:32;13.70;99.90
14095;DHT22;18096;48.142;16.290;2023-04-24T09:56:58;13.70;99.90
14095;DHT22;18096;48.142;16.290;2023-04-24T09:59:25;13.70;99.90
14095;DHT22;18096;48.142;16.290;2023-04-24T10:01:51;13.70;99.90
14095;DHT22;18096;48.142;16.290;2023-04-24T10:04:25;13.70;99.90
14095;DHT22;18096;48.142;16.290;2023-04-24T10:06:52;13.70;99.90
14095;DHT22;18096;48.142;16.290;2023-04-24T10:09:21;13.70;99.90
14095;DHT22;18096;48.142;16.290;2023-04-24T10:11:48;13.70;99.90
14095;DHT22;18096;48.142;16.290;2023-04-24T10:14:17;13.70;99.90
14095;DHT22;18096;48.142;16.290;2023-04-24T10:16:43;13.70;99.90
14095;DHT22;18096;48.142;16.290;2023-04-24T10:19:10;13.80;99.90
14095;DHT22;18096;48.142;16.290;2023-04-24T10:21:40;13.80;99.90
14095;DHT22;18096;48.142;16.290;2023-04-24T10:24:08;13.80;99.90
14095;DHT22;18096;48.142;16.290;2023-04-24T10:26:35;13.70;99.90
14095;DHT22;18096;48.142;16.290;2023-04-24T10:29:02;13.70;99.90
14095;DHT22;18096;48.142;16.290;2023-04-24T10:31:31;13.80;99.90
14095;DHT22;18096;48.142;16.290;2023-04-24T10:33:58;13.80;99.90
14095;DHT22;18096;48.142;16.290;2023-04-24T10:39:12;13.80;99.90
14095;DHT22;18096;48.142;16.290;2023-04-24T10:41:38;13.90;99.90
14095;DHT22;18096;48.142;16.290;2023-04-24T10:44:11;13.90;99.90
14095;DHT22;18096;48.142;16.290;2023-04-24T10:46:39;13.90;99.90
14095;DHT22;18096;48.142;16.290;2023-04-24T10:49:08;13.90;99.90
14095;DHT22;18096;48.142;16.290;2023-04-24T10:52:03;13.90;99.90
14095;DHT22;18096;48.142;16.290;2023-04-24T10:54:41;13.90;99.90
14095;DHT22;18096;48.142;16.290;2023-04-24T10:59:46;13.90;99.90
14095;DHT22;18096;48.142;16.290;2023-04-24T11:02:14;14.00;99.90
14095;DHT22;18096;48.142;16.290;2023-04-24T11:04:41;14.00;99.90
14095;DHT22;18096;48.142;16.290;2023-04-24T11:07:09;14.00;99.90
14095;DHT22;18096;48.142;16.290;2023-04-24T11:09:35;14.00;99.90
14095;DHT22;18096;48.142;16.290;2023-04-24T11:12:05;14.00;99.90
14095;DHT22;18096;48.142;16.290;2023-04-24T11:20:01;14.00;99.90
14095;DHT22;18096;48.142;16.290;2023-04-24T11:22:29;14.00;99.90
14095;DHT22;18096;48.142;16.290;2023-04-24T11:24:59;14.00;99.90
14095;DHT22;18096;48.142;16.290;2023-04-24T11:27:30;14.00;99.90
14095;DHT22;18096;48.142;16.290;2023-04-24T11:34:54;14.00;99.90
14095;DHT22;18096;48.142;16.290;2023-04-24T11:37:22;13.90;99.90
14095;DHT22;18096;48.142;16.290;2023-04-24T11:39:51;14.00;99.90
14095;DHT22;18096;48.142;16.290;2023-04-24T11:42:18;13.90;99.90
14095;DHT22;18096;48.142;16.290;2023-04-24T11:44:43;13.90;99.90
14095;DHT22;18096;48.142;16.290;2023-04-24T11:47:10;13.90;99.90
14095;DHT22;18096;48.142;16.290;2023-04-24T11:49:38;13.90;99.90
14095;DHT22;18096;48.142;16.290;2023-04-24T11:52:05;13.90;99.90
14095;DHT22;18096;48.142;16.290;2023-04-24T11:54:31;13.90;99.90
14095;DHT22;18096;48.142;16.290;2023-04-24T11:56:57;13.90;99.90
14095;DHT22;18096;48.142;16.290;2023-04-24T11:59:23;13.90;99.90
14095;DHT22;18096;48.142;16.290;2023-04-24T12:01:49;14.00;99.90
14095;DHT22;18096;48.142;16.290;2023-04-24T12:04:17;14.00;99.90
14095;DHT22;18096;48.142;16.290;2023-04-24T12:07:02;14.10;99.90
14095;DHT22;18096;48.142;16.290;2023-04-24T12:09:29;14.10;99.90
14095;DHT22;18096;48.142;16.290;2023-04-24T12:12:06;14.10;99.90
14095;DHT22;18096;48.142;16.290;2023-04-24T12:14:32;14.20;99.90
14095;DHT22;18096;48.142;16.290;2023-04-24T12:16:57;14.20;99.90
14095;DHT22;18096;48.142;16.290;2023-04-24T12:19:23;14.30;99.90
14095;DHT22;18096;48.142;16.290;2023-04-24T12:22:02;14.30;99.90
14095;DHT22;18096;48.142;16.290;2023-04-24T12:24:29;14.30;99.90
14095;DHT22;18096;48.142;16.290;2023-04-24T12:26:56;14.40;99.90
14095;DHT22;18096;48.142;16.290;2023-04-24T12:29:24;14.40;99.90
14095;DHT22;18096;48.142;16.290;2023-04-24T12:31:50;14.40;99.90
14095;DHT22;18096;48.142;16.290;2023-04-24T12:34:24;14.40;99.90
14095;DHT22;18096;48.142;16.290;2023-04-24T12:36:50;14.50;99.90
14095;DHT22;18096;48.142;16.290;2023-04-24T12:39:20;14.50;99.90
14095;DHT22;18096;48.142;16.290;2023-04-24T12:41:58;14.60;99.90
14095;DHT22;18096;48.142;16.290;2023-04-24T12:44:32;14.60;99.90
14095;DHT22;18096;48.142;16.290;2023-04-24T12:47:00;14.70;99.90
14095;DHT22;18096;48.142;16.290;2023-04-24T12:49:27;14.70;99.90
14095;DHT22;18096;48.142;16.290;2023-04-24T12:51:54;14.70;99.90
14095;DHT22;18096;48.142;16.290;2023-04-24T12:54:19;14.80;99.90
14095;DHT22;18096;48.142;16.290;2023-04-24T12:56:45;14.90;99.90
14095;DHT22;18096;48.142;16.290;2023-04-24T12:59:11;14.90;99.90
14095;DHT22;18096;48.142;16.290;2023-04-24T13:01:36;14.90;99.90
14095;DHT22;18096;48.142;16.290;2023-04-24T13:04:02;14.90;99.90
14095;DHT22;18096;48.142;16.290;2023-04-24T13:06:27;14.90;99.90
14095;DHT22;18096;48.142;16.290;2023-04-24T13:08:53;14.90;99.90
14095;DHT22;18096;48.142;16.290;2023-04-24T13:11:20;14.90;99.90
14095;DHT22;18096;48.142;16.290;2023-04-24T13:13:47;14.90;99.90
14095;DHT22;18096;48.142;16.290;2023-04-24T13:16:13;14.90;99.90
14095;DHT22;18096;48.142;16.290;2023-04-24T13:18:38;14.90;99.90
14095;DHT22;18096;48.142;16.290;2023-04-24T13:21:04;14.90;99.90
14095;DHT22;18096;48.142;16.290;2023-04-24T13:23:30;14.90;99.90
14095;DHT22;18096;48.142;16.290;2023-04-24T13:25:56;14.90;99.90
14095;DHT22;18096;48.142;16.290;2023-04-24T13:28:24;14.90;99.90
14095;DHT22;18096;48.142;16.290;2023-04-24T13:30:50;14.90;99.90
14095;DHT22;18096;48.142;16.290;2023-04-24T13:33:16;15.00;99.90
14095;DHT22;18096;48.142;16.290;2023-04-24T13:35:42;15.00;99.90
14095;DHT22;18096;48.142;16.290;2023-04-24T13:38:08;15.00;99.90
14095;DHT22;18096;48.142;16.290;2023-04-24T13:40:33;15.00;99.90
14095;DHT22;18096;48.142;16.290;2023-04-24T13:42:59;15.00;99.90
14095;DHT22;18096;48.142;16.290;2023-04-24T13:45:25;15.00;99.90
14095;DHT22;18096;48.142;16.290;2023-04-24T13:47:51;15.00;99.90
14095;DHT22;18096;48.142;16.290;2023-04-24T13:50:17;15.00;99.90
14095;DHT22;18096;48.142;16.290;2023-04-24T13:52:42;14.90;99.90
14095;DHT22;18096;48.142;16.290;2023-04-24T13:55:08;14.90;99.90
14095;DHT22;18096;48.142;16.290;2023-04-24T13:57:34;14.90;99.90
14095;DHT22;18096;48.142;16.290;2023-04-24T14:00:00;14.80;99.90
14095;DHT22;18096;48.142;16.290;2023-04-24T14:02:27;14.80;99.90
14095;DHT22;18096;48.142;16.290;2023-04-24T14:04:53;14.70;99.90
14095;DHT22;18096;48.142;16.290;2023-04-24T14:07:18;14.70;99.90
14095;DHT22;18096;48.142;16.290;2023-04-24T14:09:44;14.70;99.90
14095;DHT22;18096;48.142;16.290;2023-04-24T14:12:10;14.70;99.90
14095;DHT22;18096;48.142;16.290;2023-04-24T14:14:35;14.70;99.90
14095;DHT22;18096;48.142;16.290;2023-04-24T14:17:01;14.70;99.90
14095;DHT22;18096;48.142;16.290;2023-04-24T14:19:27;14.70;99.90
14095;DHT22;18096;48.142;16.290;2023-04-24T14:21:52;14.60;99.90
14095;DHT22;18096;48.142;16.290;2023-04-24T14:24:19;14.60;99.90
14095;DHT22;18096;48.142;16.290;2023-04-24T14:26:44;14.70;99.90
14095;DHT22;18096;48.142;16.290;2023-04-24T14:29:10;14.60;99.90
14095;DHT22;18096;48.142;16.290;2023-04-24T14:31:36;14.60;99.90
14095;DHT22;18096;48.142;16.290;2023-04-24T14:34:01;14.50;99.90
14095;DHT22;18096;48.142;16.290;2023-04-24T14:36:27;14.50;99.90
14095;DHT22;18096;48.142;16.290;2023-04-24T14:38:52;14.40;99.90
14095;DHT22;18096;48.142;16.290;2023-04-24T14:41:18;14.50;99.90
14095;DHT22;18096;48.142;16.290;2023-04-24T14:43:44;14.50;99.90
14095;DHT22;18096;48.142;16.290;2023-04-24T14:46:09;14.40;99.90
14095;DHT22;18096;48.142;16.290;2023-04-24T14:48:35;14.40;99.90
14095;DHT22;18096;48.142;16.290;2023-04-24T14:51:01;14.30;99.90
14095;DHT22;18096;48.142;16.290;2023-04-24T14:53:26;14.30;99.90
14095;DHT22;18096;48.142;16.290;2023-04-24T14:55:52;14.30;99.90
14095;DHT22;18096;48.142;16.290;2023-04-24T14:58:18;14.30;99.90
14095;DHT22;18096;48.142;16.290;2023-04-24T15:00:44;14.30;99.90
14095;DHT22;18096;48.142;16.290;2023-04-24T15:03:09;14.30;99.90
14095;DHT22;18096;48.142;16.290;2023-04-24T15:05:35;14.30;99.90
14095;DHT22;18096;48.142;16.290;2023-04-24T15:08:01;14.20;99.90
14095;DHT22;18096;48.142;16.290;2023-04-24T15:10:28;14.20;99.90
14095;DHT22;18096;48.142;16.290;2023-04-24T15:12:54;14.20;99.90
14095;DHT22;18096;48.142;16.290;2023-04-24T15:15:20;14.20;99.90
14095;DHT22;18096;48.142;16.290;2023-04-24T15:17:46;14.10;99.90
14095;DHT22;18096;48.142;16.290;2023-04-24T15:20:11;14.10;99.90
14095;DHT22;18096;48.142;16.290;2023-04-24T15:22:37;14.00;99.90
14095;DHT22;18096;48.142;16.290;2023-04-24T15:25:03;14.00;99.90
14095;DHT22;18096;48.142;16.290;2023-04-24T15:27:45;13.90;99.90